Time;durP1;ratioP1;P1;durP2;ratioP2;P2;SDS_P1;SDS_P2;PMS_P1;PMS_P2;Temp;Humidity;BMP_temperature;BMP_pressure;BME280_temperature;BME280_humidity;BME280_pressure;Samples;Min_cycle;Max_cycle;Signal;HPM_P1;HPM_P2
2023/05/27 00:01:52;;;;;;;4.68;0.75;;;11.00;66.00;;;;;;6160949;23;20028;-88
2023/05/27 00:04:19;;;;;;;2.88;0.70;;;11.00;66.10;;;;;;6184908;23;20092;-88
2023/05/27 00:06:48;;;;;;;3.85;1.00;;;11.00;66.20;;;;;;6160431;23;20103;-88
2023/05/27 00:09:15;;;;;;;6.45;0.73;;;10.90;66.40;;;;;;6185407;23;20068;-90
2023/05/27 00:11:44;;;;;;;4.80;0.90;;;10.90;66.40;;;;;;6161876;23;20013;-89
2023/05/27 00:14:12;;;;;;;4.25;1.00;;;10.90;66.60;;;;;;6136729;23;20075;-89
2023/05/27 00:16:41;;;;;;;6.82;0.90;;;10.90;66.60;;;;;;6136293;23;20047;-89
2023/05/27 00:19:12;;;;;;;3.40;0.75;;;10.80;66.70;;;;;;6160656;23;20033;-89
2023/05/27 00:21:39;;;;;;;4.85;0.80;;;10.80;66.80;;;;;;6159869;23;20021;-87
2023/05/27 00:24:07;;;;;;;1.88;0.40;;;10.80;67.00;;;;;;6160151;23;20044;-88
2023/05/27 00:26:38;;;;;;;4.95;0.65;;;10.80;67.00;;;;;;6161032;23;20013;-88
2023/05/27 00:29:06;;;;;;;5.55;1.27;;;10.70;67.10;;;;;;6136761;23;20025;-88
2023/05/27 00:31:33;;;;;;;2.65;0.60;;;10.70;67.30;;;;;;6185252;23;20479;-89
2023/05/27 00:34:05;;;;;;;4.28;0.98;;;10.70;67.40;;;;;;6160793;23;20439;-88
2023/05/27 00:36:32;;;;;;;6.25;1.25;;;10.70;67.50;;;;;;6160569;23;20064;-88
2023/05/27 00:39:01;;;;;;;4.15;0.80;;;10.60;67.60;;;;;;6160181;23;20031;-88
2023/05/27 00:41:28;;;;;;;5.80;0.90;;;10.60;67.70;;;;;;6160080;23;20017;-90
2023/05/27 00:43:58;;;;;;;4.47;0.80;;;10.60;67.90;;;;;;6185147;23;20032;-88
2023/05/27 00:46:28;;;;;;;5.00;0.68;;;10.60;68.10;;;;;;6160923;23;20040;-88
2023/05/27 00:48:56;;;;;;;2.42;0.70;;;10.50;68.10;;;;;;6185243;23;20024;-88
2023/05/27 00:51:24;;;;;;;6.32;0.70;;;10.50;68.20;;;;;;6160493;23;20017;-88
2023/05/27 00:53:51;;;;;;;3.58;0.70;;;10.50;68.50;;;;;;6160686;23;20021;-89
2023/05/27 00:56:21;;;;;;;3.63;1.02;;;10.40;68.40;;;;;;6160556;23;20104;-88
2023/05/27 00:58:48;;;;;;;3.58;0.88;;;10.40;68.50;;;;;;6136444;23;20079;-89
2023/05/27 01:01:16;;;;;;;4.82;1.10;;;10.40;68.70;;;;;;6185203;23;20032;-89
2023/05/27 01:03:44;;;;;;;4.60;0.70;;;10.40;68.80;;;;;;6160504;23;20021;-89
2023/05/27 01:06:30;;;;;;;3.10;0.75;;;10.30;68.90;;;;;;6135865;23;20020;-89
2023/05/27 01:09:00;;;;;;;4.07;0.85;;;10.30;69.00;;;;;;6184787;23;20017;-89
2023/05/27 01:11:55;;;;;;;4.88;1.00;;;10.30;69.00;;;;;;6184860;23;20013;-89
2023/05/27 01:14:24;;;;;;;3.60;0.82;;;10.20;69.30;;;;;;6157474;23;20024;-89
2023/05/27 01:16:56;;;;;;;4.65;0.65;;;10.20;69.40;;;;;;6160208;23;20459;-89
2023/05/27 01:19:44;;;;;;;4.78;0.80;;;10.20;69.50;;;;;;6136256;23;20025;-89
2023/05/27 01:22:13;;;;;;;4.15;0.65;;;10.20;69.60;;;;;;6160452;23;20080;-89
2023/05/27 01:24:43;;;;;;;2.17;0.60;;;10.20;69.60;;;;;;6135482;23;20107;-88
2023/05/27 01:27:15;;;;;;;4.85;0.70;;;10.10;70.20;;;;;;6135967;23;20100;-89
2023/05/27 01:29:43;;;;;;;5.68;0.88;;;10.10;69.60;;;;;;6160437;23;20017;-89
2023/05/27 01:32:16;;;;;;;4.22;1.30;;;10.10;69.80;;;;;;6136026;23;20400;-88
2023/05/27 01:35:11;;;;;;;3.15;0.63;;;10.00;70.00;;;;;;6179908;23;20032;-84
2023/05/27 01:37:42;;;;;;;3.92;0.75;;;10.10;70.20;;;;;;6153125;23;20099;-87
2023/05/27 01:40:11;;;;;;;2.53;0.75;;;10.00;70.30;;;;;;6153723;23;20048;-89
2023/05/27 01:42:41;;;;;;;3.67;0.73;;;10.00;70.40;;;;;;6161343;23;20023;-89
2023/05/27 01:45:09;;;;;;;5.35;1.05;;;10.00;70.50;;;;;;6160897;23;20403;-88
2023/05/27 01:47:37;;;;;;;2.88;0.85;;;10.00;70.70;;;;;;6136248;23;20016;-89
2023/05/27 01:50:05;;;;;;;4.78;0.80;;;9.90;70.70;;;;;;6160715;23;20021;-89
2023/05/27 01:52:36;;;;;;;3.28;1.13;;;9.90;70.80;;;;;;6136630;23;20016;-89
2023/05/27 01:55:05;;;;;;;3.78;0.85;;;9.90;70.80;;;;;;6160305;23;20072;-89
2023/05/27 01:57:32;;;;;;;3.50;0.60;;;9.90;71.00;;;;;;6160924;23;20071;-88
2023/05/27 02:00:05;;;;;;;10.23;1.35;;;9.90;71.00;;;;;;6162489;23;20021;-89
2023/05/27 02:02:42;;;;;;;3.53;0.90;;;9.90;71.20;;;;;;6142801;23;20025;-89
2023/05/27 02:05:13;;;;;;;2.28;0.60;;;9.90;71.30;;;;;;6163033;23;20096;-89
2023/05/27 02:07:40;;;;;;;2.40;0.55;;;9.90;71.30;;;;;;6162331;23;20044;-89
2023/05/27 02:10:08;;;;;;;2.35;0.90;;;9.80;71.20;;;;;;6113611;23;20020;-89
2023/05/27 02:12:35;;;;;;;3.17;0.85;;;9.80;71.40;;;;;;6161589;23;20147;-89
2023/05/27 02:15:04;;;;;;;2.85;0.65;;;9.80;71.50;;;;;;6113799;23;20479;-88
2023/05/27 02:17:32;;;;;;;4.05;0.90;;;9.80;71.60;;;;;;6167618;23;20033;-89
2023/05/27 02:20:03;;;;;;;2.25;0.73;;;9.80;71.70;;;;;;6142710;23;20347;-89
2023/05/27 02:22:34;;;;;;;3.15;0.90;;;9.80;71.70;;;;;;6192624;23;20008;-89
2023/05/27 02:25:02;;;;;;;3.15;0.63;;;9.80;71.80;;;;;;6167390;23;20024;-89
2023/05/27 02:27:29;;;;;;;6.95;1.38;;;9.80;71.80;;;;;;6193205;23;20443;-89
2023/05/27 02:29:56;;;;;;;3.15;0.88;;;9.70;71.80;;;;;;6192761;23;20024;-89
2023/05/27 02:32:27;;;;;;;4.68;0.80;;;9.80;71.90;;;;;;6192405;23;20098;-89
2023/05/27 02:34:54;;;;;;;5.75;1.05;;;9.70;72.00;;;;;;6167889;23;20021;-89
2023/05/27 02:37:24;;;;;;;3.47;0.65;;;9.70;72.10;;;;;;6192421;23;20055;-89
2023/05/27 02:39:54;;;;;;;5.32;0.68;;;9.70;72.20;;;;;;6143360;23;20359;-89
2023/05/27 02:42:22;;;;;;;2.78;1.05;;;9.60;72.30;;;;;;6166828;23;20020;-89
2023/05/27 02:44:50;;;;;;;3.28;0.82;;;9.60;72.50;;;;;;6191426;23;20028;-89
2023/05/27 02:47:17;;;;;;;3.40;0.60;;;9.60;72.60;;;;;;6142596;23;20078;-89
2023/05/27 02:49:44;;;;;;;2.13;0.80;;;9.60;72.70;;;;;;6166884;23;20021;-89
2023/05/27 02:52:12;;;;;;;3.53;0.80;;;9.50;72.80;;;;;;6190953;23;20020;-90
2023/05/27 02:54:39;;;;;;;2.33;0.60;;;9.40;72.90;;;;;;6191037;23;20028;-90
2023/05/27 02:57:06;;;;;;;2.90;0.60;;;9.40;73.00;;;;;;6166510;23;20489;-89
2023/05/27 02:59:34;;;;;;;2.70;0.65;;;9.40;73.00;;;;;;6190980;23;20455;-90
2023/05/27 03:02:02;;;;;;;3.35;0.50;;;9.40;73.10;;;;;;6191373;23;20031;-90
2023/05/27 03:04:30;;;;;;;3.10;0.70;;;9.30;73.20;;;;;;6191149;23;20059;-89
2023/05/27 03:06:57;;;;;;;2.20;0.50;;;9.30;73.30;;;;;;6191187;23;20104;-90
2023/05/27 03:09:25;;;;;;;3.22;0.50;;;9.30;73.50;;;;;;6166723;23;20024;-89
2023/05/27 03:11:52;;;;;;;3.35;0.75;;;9.30;73.50;;;;;;6191972;23;20020;-89
2023/05/27 03:14:22;;;;;;;5.60;0.95;;;9.30;73.50;;;;;;6190131;23;20025;-85
2023/05/27 03:16:53;;;;;;;3.38;0.70;;;9.30;73.70;;;;;;6140196;23;20103;-85
2023/05/27 03:19:23;;;;;;;3.97;0.80;;;9.20;73.80;;;;;;6189632;23;20351;-84
2023/05/27 03:21:51;;;;;;;3.92;0.98;;;9.20;74.50;;;;;;6164622;23;20032;-84
2023/05/27 03:24:19;;;;;;;3.67;0.50;;;9.30;73.90;;;;;;6189206;23;20127;-85
2023/05/27 03:26:47;;;;;;;2.20;0.70;;;9.20;73.90;;;;;;6140721;23;20100;-85
2023/05/27 03:29:15;;;;;;;3.75;0.80;;;9.20;73.90;;;;;;6140507;23;20016;-85
2023/05/27 03:31:42;;;;;;;2.05;0.50;;;9.20;74.00;;;;;;6165225;23;20021;-84
2023/05/27 03:34:14;;;;;;;3.17;0.55;;;9.20;74.00;;;;;;6190482;23;20414;-85
2023/05/27 03:36:45;;;;;;;2.28;0.50;;;9.30;74.10;;;;;;6164592;23;20082;-84
2023/05/27 03:39:14;;;;;;;1.63;0.47;;;9.30;74.10;;;;;;6189037;23;20040;-84
2023/05/27 03:41:49;;;;;;;3.40;0.68;;;9.20;74.10;;;;;;6166318;23;20021;-83
2023/05/27 03:44:17;;;;;;;3.42;1.00;;;9.30;74.10;;;;;;6189241;23;20023;-83
2023/05/27 03:46:44;;;;;;;2.75;0.50;;;9.20;74.10;;;;;;6164664;23;20020;-83
2023/05/27 03:49:13;;;;;;;1.33;0.30;;;9.30;74.20;;;;;;6140728;23;20043;-84
2023/05/27 03:51:40;;;;;;;2.95;0.70;;;9.30;74.30;;;;;;6164152;23;20020;-85
2023/05/27 03:54:08;;;;;;;3.85;0.60;;;9.30;74.40;;;;;;6164917;23;20622;-84
2023/05/27 03:56:35;;;;;;;2.40;0.57;;;9.30;74.40;;;;;;6188995;23;20024;-85
2023/05/27 03:59:02;;;;;;;2.75;0.60;;;9.30;74.40;;;;;;6189004;23;20074;-84
2023/05/27 04:01:30;;;;;;;3.28;0.57;;;9.30;74.30;;;;;;6188809;23;20024;-84
2023/05/27 04:04:00;;;;;;;2.75;0.50;;;9.30;74.40;;;;;;6189126;23;20108;-85
2023/05/27 04:06:31;;;;;;;2.72;0.90;;;9.30;74.40;;;;;;6188810;23;20016;-89
2023/05/27 04:08:58;;;;;;;2.70;0.52;;;9.30;74.40;;;;;;6166701;23;20453;-89
2023/05/27 04:11:27;;;;;;;2.40;0.60;;;9.30;74.50;;;;;;6191686;23;20067;-90
2023/05/27 04:13:57;;;;;;;2.17;0.70;;;9.40;74.50;;;;;;6167047;23;20028;-89
2023/05/27 04:16:24;;;;;;;4.28;0.98;;;9.40;74.60;;;;;;6190264;23;20030;-89
2023/05/27 04:18:52;;;;;;;3.85;0.90;;;9.40;74.60;;;;;;6214867;23;20025;-89
2023/05/27 04:21:24;;;;;;;1.95;0.57;;;9.40;74.60;;;;;;6215068;23;20075;-90
2023/05/27 04:23:53;;;;;;;3.72;0.80;;;9.40;74.70;;;;;;6166418;23;20032;-90
2023/05/27 04:26:20;;;;;;;2.38;0.50;;;9.50;74.60;;;;;;6117567;23;20066;-89
2023/05/27 04:28:52;;;;;;;2.42;0.43;;;9.50;74.60;;;;;;6142961;23;20099;-89
2023/05/27 04:31:21;;;;;;;3.35;0.88;;;9.50;74.50;;;;;;6166531;23;20027;-89
2023/05/27 04:33:54;;;;;;;3.42;0.60;;;9.50;74.50;;;;;;6143283;23;20044;-90
2023/05/27 04:36:25;;;;;;;2.75;0.70;;;9.60;74.60;;;;;;6190521;23;20103;-89
2023/05/27 04:39:21;;;;;;;6.30;0.98;;;9.60;74.60;;;;;;6201686;23;20020;-90
2023/05/27 04:41:50;;;;;;;5.13;1.00;;;9.60;74.70;;;;;;6141803;23;20024;-89
2023/05/27 04:44:28;;;;;;;5.55;0.98;;;9.60;74.80;;;;;;6145028;23;20021;-90
2023/05/27 04:46:58;;;;;;;2.70;0.50;;;9.70;74.60;;;;;;6143291;23;20020;-89
2023/05/27 04:49:26;;;;;;;4.28;1.05;;;9.80;74.40;;;;;;6190515;23;20107;-89
2023/05/27 04:51:54;;;;;;;2.38;0.70;;;9.80;74.40;;;;;;6141597;23;20344;-89
2023/05/27 04:54:22;;;;;;;5.22;1.10;;;9.80;74.50;;;;;;6141594;23;20127;-89
2023/05/27 04:56:51;;;;;;;4.15;0.95;;;9.80;74.50;;;;;;6165273;23;20024;-90
2023/05/27 04:59:45;;;;;;;2.22;0.50;;;9.80;74.60;;;;;;6190455;23;20043;-90
2023/05/27 05:02:25;;;;;;;2.33;0.60;;;9.80;74.60;;;;;;6190491;23;20028;-89
2023/05/27 05:05:11;;;;;;;3.08;0.45;;;9.80;74.60;;;;;;6146336;23;20051;-89
2023/05/27 05:07:40;;;;;;;2.17;0.40;;;9.90;74.60;;;;;;6165559;23;20545;-89
2023/05/27 05:10:11;;;;;;;3.08;0.70;;;9.90;74.50;;;;;;6165770;23;20023;-89
2023/05/27 05:12:50;;;;;;;3.42;0.77;;;10.00;74.40;;;;;;6167135;23;20016;-88
2023/05/27 05:15:17;;;;;;;3.92;0.63;;;10.10;74.40;;;;;;6165434;23;20021;-89
2023/05/27 05:17:46;;;;;;;5.60;1.40;;;10.10;74.40;;;;;;6141608;23;20090;-89
2023/05/27 05:20:14;;;;;;;3.25;0.75;;;10.10;74.40;;;;;;6117078;23;20020;-89
2023/05/27 05:22:41;;;;;;;3.10;0.90;;;10.20;74.30;;;;;;6189741;23;20027;-89
2023/05/27 05:25:10;;;;;;;3.92;1.00;;;10.30;74.30;;;;;;6190043;23;20435;-89
2023/05/27 05:27:45;;;;;;;2.97;0.68;;;10.40;74.20;;;;;;6189507;23;20025;-89
2023/05/27 05:30:12;;;;;;;4.38;0.75;;;10.40;74.10;;;;;;6165390;23;20103;-88
2023/05/27 05:32:39;;;;;;;3.55;0.80;;;10.50;74.30;;;;;;6166552;23;20012;-89
2023/05/27 05:35:08;;;;;;;4.28;1.38;;;10.60;74.30;;;;;;6192811;23;20458;-89
2023/05/27 05:37:43;;;;;;;7.60;1.17;;;10.60;74.10;;;;;;6193648;23;20021;-89
2023/05/27 05:40:13;;;;;;;4.95;1.20;;;10.80;74.20;;;;;;6142274;23;20032;-88
2023/05/27 05:42:52;;;;;;;2.03;0.60;;;10.80;74.20;;;;;;6192196;23;20048;-89
2023/05/27 05:45:19;;;;;;;6.95;1.20;;;10.90;74.10;;;;;;6119992;23;20078;-87
2023/05/27 05:47:47;;;;;;;6.05;1.50;;;10.90;74.00;;;;;;6204219;23;20017;-88
2023/05/27 05:50:20;;;;;;;8.27;1.30;;;11.00;73.90;;;;;;6176121;23;20084;-88
2023/05/27 05:52:48;;;;;;;4.78;1.17;;;11.10;74.20;;;;;;6170510;23;20325;-89
2023/05/27 05:55:15;;;;;;;8.15;1.35;;;11.20;74.00;;;;;;6191336;23;20020;-89
2023/05/27 05:57:42;;;;;;;4.95;0.85;;;11.30;73.90;;;;;;6142745;23;20021;-89
2023/05/27 06:00:11;;;;;;;3.05;0.82;;;11.30;73.90;;;;;;6166589;23;20074;-89
2023/05/27 06:02:44;;;;;;;2.40;0.68;;;11.40;73.80;;;;;;6146890;23;20028;-89
2023/05/27 06:05:31;;;;;;;7.47;1.05;;;11.50;73.70;;;;;;6174743;23;20075;-89
2023/05/27 06:07:59;;;;;;;5.90;0.85;;;11.70;73.60;;;;;;6191081;23;20020;-89
2023/05/27 06:10:26;;;;;;;3.90;0.98;;;11.70;73.30;;;;;;6142601;23;20016;-88
2023/05/27 06:12:53;;;;;;;4.95;0.80;;;11.80;73.30;;;;;;6142665;23;20024;-89
2023/05/27 06:15:21;;;;;;;4.97;0.88;;;11.90;73.20;;;;;;6143011;23;20025;-89
2023/05/27 06:17:48;;;;;;;4.45;0.90;;;12.00;73.10;;;;;;6142184;23;20028;-89
2023/05/27 06:20:15;;;;;;;4.70;0.80;;;12.10;73.00;;;;;;6166905;23;20020;-89
2023/05/27 06:22:43;;;;;;;4.40;0.90;;;12.10;72.80;;;;;;6191212;23;20439;-88
2023/05/27 06:25:39;;;;;;;4.75;1.08;;;12.20;72.60;;;;;;6197660;23;20069;-89
2023/05/27 06:28:07;;;;;;;4.32;0.73;;;12.30;72.60;;;;;;6191325;23;20044;-89
2023/05/27 06:30:36;;;;;;;5.40;0.80;;;12.40;72.50;;;;;;6191083;23;20023;-89
2023/05/27 06:33:07;;;;;;;7.63;1.30;;;12.40;72.40;;;;;;6166888;23;20096;-89
2023/05/27 06:35:38;;;;;;;6.85;1.33;;;12.50;72.30;;;;;;6167450;23;20079;-89
2023/05/27 06:38:06;;;;;;;5.07;1.00;;;12.60;72.30;;;;;;6166301;23;20071;-89
2023/05/27 06:40:34;;;;;;;5.20;1.05;;;12.70;72.20;;;;;;6191521;23;20028;-88
2023/05/27 06:43:02;;;;;;;5.80;1.17;;;12.80;72.00;;;;;;6190890;23;20025;-88
2023/05/27 06:46:07;;;;;;;3.80;0.85;;;12.90;71.90;;;;;;6126561;23;20057;-89
2023/05/27 06:48:49;;;;;;;4.88;0.85;;;13.00;71.70;;;;;;6104564;23;20200;-89
2023/05/27 06:51:17;;;;;;;4.55;0.70;;;13.10;71.60;;;;;;6153637;23;20029;-90
2023/05/27 06:53:46;;;;;;;7.00;0.90;;;13.20;71.40;;;;;;6190998;23;20066;-89
2023/05/27 06:56:28;;;;;;;6.18;1.00;;;13.30;71.40;;;;;;6191027;23;20067;-90
2023/05/27 06:59:14;;;;;;;4.63;1.30;;;13.40;71.30;;;;;;6174476;23;20402;-89
2023/05/27 07:01:41;;;;;;;7.50;1.27;;;13.40;71.10;;;;;;6191388;23;20016;-89
2023/05/27 07:04:12;;;;;;;9.02;1.02;;;13.50;71.00;;;;;;6143226;23;20108;-88
2023/05/27 07:06:53;;;;;;;3.50;1.02;;;13.60;70.90;;;;;;6194398;23;20016;-89
2023/05/27 07:09:24;;;;;;;6.85;1.08;;;13.70;70.80;;;;;;6143850;23;20028;-89
2023/05/27 07:11:51;;;;;;;3.90;1.00;;;13.80;70.60;;;;;;6191369;23;20047;-89
2023/05/27 07:14:40;;;;;;;6.63;1.10;;;13.80;70.50;;;;;;6175013;23;20114;-90
2023/05/27 07:17:10;;;;;;;5.28;0.80;;;13.90;70.30;;;;;;6191907;23;20346;-87
2023/05/27 07:19:38;;;;;;;7.53;1.52;;;14.00;70.20;;;;;;6165997;23;20031;-89
2023/05/27 07:22:10;;;;;;;5.78;1.20;;;14.00;70.20;;;;;;6144569;23;20024;-89
2023/05/27 07:24:38;;;;;;;10.88;1.17;;;14.10;70.20;;;;;;6141889;23;20017;-89
2023/05/27 07:27:08;;;;;;;4.65;1.00;;;14.20;70.00;;;;;;6143249;23;20013;-89
2023/05/27 07:29:39;;;;;;;4.32;1.25;;;14.30;69.80;;;;;;6166892;23;20047;-88
2023/05/27 07:32:12;;;;;;;6.35;1.40;;;14.40;69.60;;;;;;6145996;23;20079;-89
2023/05/27 07:34:43;;;;;;;12.55;1.50;;;14.40;69.50;;;;;;6166051;23;20031;-88
2023/05/27 07:37:10;;;;;;;5.55;1.30;;;14.50;69.30;;;;;;6190432;23;20107;-90
2023/05/27 07:39:37;;;;;;;5.38;1.25;;;14.60;69.30;;;;;;6171769;23;20024;-91
2023/05/27 07:42:05;;;;;;;8.60;1.20;;;14.60;69.20;;;;;;6197191;23;20020;-86
2023/05/27 07:44:32;;;;;;;6.85;1.00;;;14.70;69.10;;;;;;6181083;23;20042;-85
2023/05/27 07:47:00;;;;;;;4.35;1.33;;;14.80;68.90;;;;;;6160225;23;20079;-86
2023/05/27 07:49:31;;;;;;;6.90;1.60;;;15.00;68.70;;;;;;6145640;23;20423;-90
2023/05/27 07:52:24;;;;;;;3.83;0.90;;;15.10;68.50;;;;;;6203449;23;20080;-89
2023/05/27 07:54:52;;;;;;;5.43;1.17;;;15.20;68.30;;;;;;6171336;23;20024;-89
2023/05/27 07:57:24;;;;;;;5.80;1.77;;;15.30;68.10;;;;;;6142735;23;20021;-88
2023/05/27 07:59:52;;;;;;;6.35;1.50;;;15.30;68.00;;;;;;6165736;23;20044;-85
2023/05/27 08:02:22;;;;;;;4.68;1.20;;;15.40;67.90;;;;;;6165190;23;20025;-85
2023/05/27 08:04:51;;;;;;;4.50;1.38;;;15.40;67.80;;;;;;6164991;23;20017;-86
2023/05/27 08:07:38;;;;;;;3.97;1.20;;;15.50;67.70;;;;;;6158068;23;20021;-86
2023/05/27 08:10:23;;;;;;;5.15;1.15;;;15.60;67.50;;;;;;6148620;23;20023;-85
2023/05/27 08:13:07;;;;;;;4.82;1.55;;;15.80;67.30;;;;;;6190901;23;20025;-84
2023/05/27 08:15:52;;;;;;;4.82;1.60;;;15.90;67.00;;;;;;6194989;23;20035;-85
2023/05/27 08:18:38;;;;;;;9.30;1.98;;;16.00;66.90;;;;;;6160187;23;20402;-85
2023/05/27 08:21:16;;;;;;;4.32;1.27;;;16.10;66.80;;;;;;6148491;23;20443;-88
2023/05/27 08:24:04;;;;;;;6.05;1.23;;;16.20;66.60;;;;;;6192877;23;20047;-87
2023/05/27 08:26:55;;;;;;;7.18;1.30;;;16.40;66.40;;;;;;6179478;23;20027;-86
2023/05/27 08:29:48;;;;;;;5.38;1.20;;;16.50;66.20;;;;;;6191073;23;20016;-86
2023/05/27 08:32:34;;;;;;;10.85;2.15;;;16.60;66.00;;;;;;6151900;23;20482;-86
2023/05/27 08:35:01;;;;;;;7.45;1.77;;;16.60;65.80;;;;;;6188804;23;20021;-86
2023/05/27 08:37:28;;;;;;;4.65;1.70;;;16.60;65.80;;;;;;6116078;23;20025;-87
2023/05/27 08:40:01;;;;;;;3.85;1.17;;;16.70;65.90;;;;;;6142473;23;20048;-86
2023/05/27 08:42:38;;;;;;;5.95;1.40;;;16.70;65.80;;;;;;6191143;23;20382;-86
2023/05/27 08:45:07;;;;;;;7.38;2.40;;;16.80;65.60;;;;;;6141007;23;20407;-85
2023/05/27 08:47:39;;;;;;;4.53;1.25;;;17.00;65.40;;;;;;6188846;23;20037;-85
2023/05/27 08:50:11;;;;;;;4.20;1.25;;;17.10;65.20;;;;;;6164911;23;20016;-86
2023/05/27 08:52:47;;;;;;;8.50;2.00;;;17.20;65.00;;;;;;6188905;23;20108;-84
2023/05/27 08:55:18;;;;;;;3.67;1.10;;;17.30;64.70;;;;;;6140762;23;20031;-85
2023/05/27 08:57:56;;;;;;;5.43;1.80;;;17.30;64.70;;;;;;6188646;23;20127;-85
2023/05/27 09:00:26;;;;;;;6.47;1.45;;;17.40;64.60;;;;;;6190805;23;20055;-90
2023/05/27 09:02:59;;;;;;;5.05;1.73;;;17.50;64.40;;;;;;6192215;23;20024;-91
2023/05/27 09:05:32;;;;;;;6.88;1.58;;;17.60;64.20;;;;;;6144269;23;20027;-93
2023/05/27 09:07:59;;;;;;;7.88;2.00;;;17.60;64.10;;;;;;6145340;23;20028;-91
2023/05/27 09:10:40;;;;;;;4.93;1.30;;;17.70;64.00;;;;;;6170249;23;20043;-91
2023/05/27 09:13:07;;;;;;;4.32;1.20;;;17.80;63.70;;;;;;6170292;23;20027;-92
2023/05/27 09:15:36;;;;;;;6.82;1.77;;;17.90;63.70;;;;;;6194496;23;20048;-91
2023/05/27 09:18:05;;;;;;;6.25;1.45;;;18.00;63.50;;;;;;6144096;23;20036;-86
2023/05/27 09:20:32;;;;;;;7.20;2.00;;;18.00;63.30;;;;;;6191772;23;20075;-86
2023/05/27 09:23:04;;;;;;;7.93;2.05;;;18.10;63.00;;;;;;6167169;23;20047;-85
2023/05/27 09:25:31;;;;;;;4.57;1.50;;;18.10;62.90;;;;;;6167514;23;20096;-88
2023/05/27 09:27:58;;;;;;;7.88;1.60;;;18.10;63.00;;;;;;6167816;23;20020;-86
2023/05/27 09:30:27;;;;;;;6.40;1.10;;;18.30;62.90;;;;;;6168460;23;20024;-88
2023/05/27 09:33:02;;;;;;;8.30;2.00;;;18.40;62.70;;;;;;6145040;23;20023;-93
2023/05/27 09:35:39;;;;;;;8.02;1.48;;;18.50;62.30;;;;;;6193280;23;20111;-92
2023/05/27 09:38:07;;;;;;;5.90;1.60;;;18.50;62.40;;;;;;6144163;23;20024;-86
2023/05/27 09:40:37;;;;;;;5.38;1.73;;;18.50;62.40;;;;;;6146877;23;20024;-93
2023/05/27 09:43:05;;;;;;;4.55;1.45;;;18.60;62.20;;;;;;6195076;23;20020;-90
2023/05/27 09:45:33;;;;;;;5.18;2.10;;;18.70;62.00;;;;;;6161539;23;20320;-94
2023/05/27 09:48:02;;;;;;;6.80;1.50;;;18.80;61.70;;;;;;6170062;23;20017;-94
2023/05/27 09:50:31;;;;;;;6.43;1.80;;;18.80;61.60;;;;;;6168548;23;20020;-86
2023/05/27 09:53:00;;;;;;;5.57;1.40;;;18.90;61.50;;;;;;6192105;23;20447;-86
2023/05/27 09:55:39;;;;;;;4.93;1.85;;;18.80;61.40;;;;;;6169313;23;20025;-86
2023/05/27 09:58:06;;;;;;;5.85;1.40;;;18.90;61.50;;;;;;6142881;23;20024;-87
2023/05/27 10:00:34;;;;;;;5.88;1.27;;;19.10;61.20;;;;;;6143052;23;20403;-87
2023/05/27 10:03:06;;;;;;;7.38;2.00;;;19.20;60.90;;;;;;6167552;23;20111;-87
2023/05/27 10:05:38;;;;;;;4.70;1.55;;;19.40;60.70;;;;;;6168672;23;20550;-87
2023/05/27 10:08:06;;;;;;;5.40;1.45;;;19.40;60.40;;;;;;6167308;23;20024;-87
2023/05/27 10:10:50;;;;;;;5.20;1.58;;;19.50;60.20;;;;;;6150255;23;20033;-87
2023/05/27 10:13:21;;;;;;;3.78;1.20;;;19.50;60.10;;;;;;6143117;23;20020;-87
2023/05/27 10:15:52;;;;;;;7.25;1.65;;;19.60;60.00;;;;;;6192435;23;20451;-86
2023/05/27 10:18:25;;;;;;;7.82;1.95;;;19.60;59.60;;;;;;6171548;23;20021;-87
2023/05/27 10:21:00;;;;;;;8.00;2.13;;;19.60;59.40;;;;;;6163313;23;20016;-92
2023/05/27 10:23:30;;;;;;;9.07;1.83;;;19.60;59.40;;;;;;6164438;23;20337;-92
2023/05/27 10:26:05;;;;;;;5.47;1.42;;;19.70;59.30;;;;;;6163352;23;20346;-87
2023/05/27 10:28:44;;;;;;;3.55;1.10;;;19.80;59.10;;;;;;6160895;23;20020;-87
2023/05/27 10:31:20;;;;;;;3.30;1.13;;;20.00;59.00;;;;;;6185518;23;20021;-89
2023/05/27 10:33:52;;;;;;;6.63;1.20;;;20.10;58.70;;;;;;6160873;23;20021;-89
2023/05/27 10:36:25;;;;;;;4.55;1.25;;;20.20;58.50;;;;;;6193543;23;20021;-88
2023/05/27 10:39:19;;;;;;;5.75;1.30;;;20.30;58.00;;;;;;6221779;23;20021;-88
2023/05/27 10:41:51;;;;;;;4.93;1.40;;;20.20;58.10;;;;;;6160930;23;20108;-85
2023/05/27 10:44:33;;;;;;;6.05;1.20;;;20.40;58.00;;;;;;6185640;23;20060;-87
2023/05/27 10:47:23;;;;;;;5.60;1.10;;;20.50;57.80;;;;;;6185321;23;20017;-86
2023/05/27 10:49:52;;;;;;;4.50;1.05;;;20.50;57.80;;;;;;6184574;23;20025;-88
2023/05/27 10:52:26;;;;;;;6.20;1.40;;;20.60;57.60;;;;;;6138568;23;20103;-92
2023/05/27 10:54:55;;;;;;;5.03;1.00;;;20.70;57.30;;;;;;6162753;23;20021;-87
2023/05/27 10:57:24;;;;;;;5.13;1.15;;;20.80;57.30;;;;;;6112857;23;20044;-90
2023/05/27 10:59:55;;;;;;;5.55;1.33;;;20.90;57.10;;;;;;6161012;23;20021;-90
2023/05/27 11:02:35;;;;;;;5.47;1.38;;;20.90;56.60;;;;;;6187530;23;20017;-87
2023/05/27 11:05:18;;;;;;;5.45;1.40;;;21.00;56.50;;;;;;6160610;23;20013;-87
2023/05/27 11:07:58;;;;;;;3.25;1.10;;;21.10;56.30;;;;;;6184172;23;20079;-82
2023/05/27 11:10:27;;;;;;;5.90;1.52;;;21.10;56.00;;;;;;6159872;23;20021;-83
2023/05/27 11:12:54;;;;;;;5.55;1.05;;;21.10;55.90;;;;;;6160100;23;20039;-82
2023/05/27 11:15:23;;;;;;;4.60;1.27;;;21.20;55.60;;;;;;6159914;23;20029;-86
2023/05/27 11:22:12;;;;;;;3.42;0.90;;;21.40;55.30;;;;;;6124080;23;20097;-83
2023/05/27 11:25:42;;;;;;;4.47;1.35;;;21.40;55.20;;;;;;6168186;23;20470;-85
2023/05/27 11:33:10;;;;;;;5.75;1.40;;;21.50;54.50;;;;;;6186061;23;20036;-84
2023/05/27 11:39:59;;;;;;;2.72;1.10;;;21.60;54.40;;;;;;6099825;23;20026;-82
2023/05/27 11:42:31;;;;;;;4.13;1.10;;;21.70;53.90;;;;;;6122322;23;20075;-83
2023/05/27 11:45:59;;;;;;;7.55;1.85;;;21.80;53.70;;;;;;6159720;23;20024;-84
2023/05/27 11:48:36;;;;;;;2.63;0.95;;;21.90;53.20;;;;;;6057027;23;20102;-83
2023/05/27 11:51:07;;;;;;;3.78;1.10;;;22.00;53.20;;;;;;6183904;23;20351;-83
2023/05/27 11:53:44;;;;;;;5.13;1.30;;;22.30;52.70;;;;;;6160436;23;20021;-86
2023/05/27 11:56:11;;;;;;;4.82;0.90;;;22.70;52.20;;;;;;6159986;23;20259;-91
2023/05/27 11:58:38;;;;;;;4.22;1.00;;;23.00;51.60;;;;;;6135890;23;20104;-88
2023/05/27 12:01:05;;;;;;;4.82;1.25;;;23.40;51.10;;;;;;6159238;23;20474;-81
2023/05/27 12:03:34;;;;;;;4.80;1.00;;;23.70;50.70;;;;;;6183358;23;20119;-89
2023/05/27 12:06:03;;;;;;;5.00;1.17;;;24.00;50.10;;;;;;6159206;23;20025;-80
2023/05/27 12:08:31;;;;;;;4.15;1.13;;;24.30;49.70;;;;;;6183703;23;20021;-79
2023/05/27 12:10:58;;;;;;;5.45;1.40;;;24.60;49.30;;;;;;6158912;23;20017;-87
2023/05/27 12:13:38;;;;;;;4.15;1.20;;;24.90;48.60;;;;;;6184995;23;20044;-84
2023/05/27 12:16:05;;;;;;;3.50;0.98;;;25.30;48.20;;;;;;6158971;23;20351;-84
2023/05/27 12:18:32;;;;;;;4.95;1.08;;;25.50;48.10;;;;;;6183840;23;20192;-81
2023/05/27 12:20:59;;;;;;;4.50;1.45;;;25.70;47.80;;;;;;6188806;23;20111;-81
2023/05/27 12:23:27;;;;;;;2.72;1.05;;;26.10;47.30;;;;;;6189134;23;20016;-81
2023/05/27 12:25:54;;;;;;;4.55;1.60;;;26.30;47.00;;;;;;6139603;23;20012;-81
2023/05/27 12:28:21;;;;;;;6.93;1.77;;;26.50;46.50;;;;;;6163969;23;20016;-82
2023/05/27 12:30:54;;;;;;;3.03;0.93;;;26.70;45.80;;;;;;6140679;23;20016;-82
2023/05/27 12:33:24;;;;;;;10.38;5.28;;;26.80;45.70;;;;;;6189038;23;20051;-83
2023/05/27 12:36:05;;;;;;;9.82;3.40;;;27.00;45.70;;;;;;6189006;23;20031;-83
2023/05/27 12:38:32;;;;;;;7.43;2.58;;;27.20;45.60;;;;;;6164615;23;20031;-82
2023/05/27 12:41:00;;;;;;;4.97;1.92;;;27.30;45.20;;;;;;6164359;23;20104;-79
2023/05/27 12:43:27;;;;;;;5.35;1.95;;;27.60;45.00;;;;;;6188763;23;20508;-81
2023/05/27 12:45:54;;;;;;;4.57;1.48;;;27.90;44.60;;;;;;6139972;23;20099;-81
2023/05/27 12:48:22;;;;;;;3.85;1.42;;;28.10;44.40;;;;;;6164494;23;20443;-81
2023/05/27 12:50:52;;;;;;;4.28;1.80;;;28.20;44.00;;;;;;6164986;23;20020;-85
2023/05/27 12:53:19;;;;;;;3.25;1.48;;;28.40;43.90;;;;;;6140255;23;20028;-84
2023/05/27 12:55:46;;;;;;;4.75;1.00;;;28.70;43.70;;;;;;6163760;23;20024;-83
2023/05/27 12:58:15;;;;;;;4.03;1.20;;;29.00;43.40;;;;;;6139662;23;20025;-87
2023/05/27 13:00:44;;;;;;;3.80;1.65;;;29.30;43.20;;;;;;6141352;23;20215;-85
2023/05/27 13:03:11;;;;;;;3.85;1.00;;;29.60;42.90;;;;;;6141005;23;20434;-84
2023/05/27 13:05:38;;;;;;;2.58;0.63;;;29.70;42.60;;;;;;6139961;23;20021;-81
2023/05/27 13:08:06;;;;;;;3.95;0.90;;;29.80;42.70;;;;;;6163841;23;20447;-84
2023/05/27 13:10:33;;;;;;;4.32;1.17;;;30.10;42.30;;;;;;6188311;23;20051;-83
2023/05/27 13:13:02;;;;;;;4.15;1.10;;;30.30;41.90;;;;;;6140020;23;20094;-83
2023/05/27 13:15:31;;;;;;;2.15;0.75;;;30.40;41.60;;;;;;6139661;23;20115;-84
2023/05/27 13:17:59;;;;;;;3.17;0.90;;;30.60;41.60;;;;;;6164521;23;20023;-81
2023/05/27 13:20:29;;;;;;;5.15;1.30;;;30.80;41.30;;;;;;6213196;23;20455;-81
2023/05/27 13:23:00;;;;;;;4.30;1.42;;;31.00;40.90;;;;;;6188765;23;20052;-81
2023/05/27 13:25:29;;;;;;;2.83;0.77;;;31.20;40.70;;;;;;6188855;23;20028;-81
2023/05/27 13:28:01;;;;;;;4.87;1.20;;;31.20;40.70;;;;;;6189545;23;20044;-83